Time;durP1;ratioP1;P1;durP2;ratioP2;P2;SDS_P1;SDS_P2;PMS_P1;PMS_P2;Temp;Humidity;BMP_temperature;BMP_pressure;BME280_temperature;BME280_humidity;BME280_pressure;Samples;Min_cycle;Max_cycle;Signal;HPM_P1;HPM_P2
2023/07/19 00:00:15;;;;;;;7.60;4.70;;;17.20;99.90;;;;;;5093160;28;20488;-46
2023/07/19 00:02:41;;;;;;;7.38;4.80;;;17.20;99.90;;;;;;5091810;28;20052;-47
2023/07/19 00:05:10;;;;;;;7.47;4.45;;;17.20;99.90;;;;;;5092676;28;20044;-47
2023/07/19 00:07:36;;;;;;;9.65;5.05;;;17.20;99.90;;;;;;5092743;28;20439;-47
2023/07/19 00:10:03;;;;;;;8.07;4.45;;;17.10;99.90;;;;;;5092600;28;20087;-47
2023/07/19 00:12:28;;;;;;;8.10;4.38;;;17.10;99.90;;;;;;5092976;28;20181;-46
2023/07/19 00:14:54;;;;;;;7.38;3.95;;;17.10;99.90;;;;;;5092645;28;20048;-47
2023/07/19 00:17:20;;;;;;;6.78;3.92;;;17.00;99.90;;;;;;5091405;28;20081;-46
2023/07/19 00:19:45;;;;;;;6.90;4.05;;;17.00;99.90;;;;;;5095117;28;20055;-47
2023/07/19 00:22:11;;;;;;;4.85;2.70;;;17.00;99.90;;;;;;5096649;28;20101;-46
2023/07/19 00:24:37;;;;;;;6.72;3.00;;;17.10;99.90;;;;;;5095603;28;20127;-47
2023/07/19 00:27:02;;;;;;;5.85;2.50;;;17.10;99.90;;;;;;5096759;28;20040;-47
2023/07/19 00:29:28;;;;;;;5.50;2.85;;;17.10;99.90;;;;;;5078654;28;20506;-47
2023/07/19 00:31:54;;;;;;;5.60;2.50;;;17.10;99.90;;;;;;5096690;28;20048;-47
2023/07/19 00:34:20;;;;;;;4.35;2.17;;;17.10;99.90;;;;;;5061675;28;20548;-48
2023/07/19 00:36:45;;;;;;;5.82;2.63;;;17.20;99.90;;;;;;5096353;28;20040;-47
2023/07/19 00:39:12;;;;;;;5.47;2.50;;;17.20;99.90;;;;;;5096050;28;20488;-47
2023/07/19 00:41:37;;;;;;;4.47;2.28;;;17.20;99.90;;;;;;5096438;28;20040;-47
2023/07/19 00:44:03;;;;;;;5.13;2.47;;;17.20;99.90;;;;;;5096251;28;20044;-47
2023/07/19 00:46:29;;;;;;;6.15;2.40;;;17.20;99.90;;;;;;5096068;28;20056;-48
2023/07/19 00:48:56;;;;;;;5.68;3.03;;;17.20;99.90;;;;;;5096095;28;20048;-50
2023/07/19 00:51:22;;;;;;;7.43;2.88;;;17.30;99.90;;;;;;5095936;28;20082;-46
2023/07/19 00:53:49;;;;;;;6.55;3.30;;;17.30;99.90;;;;;;5096088;28;20486;-47
2023/07/19 00:56:15;;;;;;;5.32;2.90;;;17.30;99.90;;;;;;5096186;28;20079;-47
2023/07/19 00:58:42;;;;;;;5.97;2.58;;;17.30;99.90;;;;;;5095871;28;20074;-46
2023/07/19 01:01:09;;;;;;;6.85;3.40;;;17.30;99.90;;;;;;5095835;28;20134;-47
2023/07/19 01:03:35;;;;;;;;;;;17.30;99.90;;;;;;5078209;28;20052;-46
2023/07/19 01:06:03;;;;;;;5.65;2.67;;;17.30;99.90;;;;;;5095415;28;19924;-46
2023/07/19 01:08:28;;;;;;;4.93;2.60;;;17.30;99.90;;;;;;5095768;28;20508;-46
2023/07/19 01:10:54;;;;;;;4.93;2.30;;;17.30;99.90;;;;;;5095749;28;20086;-47
2023/07/19 01:13:20;;;;;;;5.63;2.38;;;17.30;99.90;;;;;;5095729;28;20040;-46
2023/07/19 01:15:45;;;;;;;5.40;2.17;;;17.30;99.90;;;;;;5095781;28;20083;-46
2023/07/19 01:18:11;;;;;;;3.70;2.20;;;17.30;99.90;;;;;;5077220;28;20040;-47
2023/07/19 01:20:37;;;;;;;5.53;2.38;;;17.30;99.90;;;;;;5095229;28;20044;-47
2023/07/19 01:23:03;;;;;;;4.45;2.47;;;17.30;99.90;;;;;;5095026;28;20131;-47
2023/07/19 01:25:28;;;;;;;4.20;2.30;;;17.30;99.90;;;;;;5094973;28;20100;-47
2023/07/19 01:27:54;;;;;;;5.60;2.45;;;17.20;99.90;;;;;;5094772;28;20044;-47
2023/07/19 01:30:20;;;;;;;5.78;3.17;;;17.30;99.90;;;;;;5094696;28;20048;-47
2023/07/19 01:32:46;;;;;;;5.50;2.67;;;17.20;99.90;;;;;;5095209;28;20048;-47
2023/07/19 01:35:12;;;;;;;8.20;3.30;;;17.20;99.90;;;;;;5094918;28;20105;-47
2023/07/19 01:37:37;;;;;;;7.40;2.83;;;17.20;99.90;;;;;;5094751;28;20047;-47
2023/07/19 01:40:05;;;;;;;5.70;3.10;;;17.10;99.90;;;;;;5077291;28;20040;-47
2023/07/19 01:42:30;;;;;;;5.70;2.90;;;17.10;99.90;;;;;;5095043;28;20403;-48
2023/07/19 01:44:57;;;;;;;4.60;2.47;;;17.10;99.90;;;;;;5095111;28;20044;-47
2023/07/19 01:47:22;;;;;;;7.60;2.80;;;17.10;99.90;;;;;;5060017;28;20520;-48
2023/07/19 01:49:48;;;;;;;5.65;2.78;;;17.10;99.90;;;;;;5094209;28;20075;-49
2023/07/19 01:52:15;;;;;;;5.88;2.65;;;17.10;99.90;;;;;;5093684;28;20598;-47
2023/07/19 01:54:41;;;;;;;5.20;2.78;;;17.10;99.90;;;;;;5094778;28;20540;-46
2023/07/19 01:57:06;;;;;;;6.50;2.92;;;17.10;99.90;;;;;;5094074;28;20139;-47
2023/07/19 01:59:32;;;;;;;5.97;2.80;;;17.10;99.90;;;;;;5094691;28;20423;-48
2023/07/19 02:01:58;;;;;;;5.38;2.60;;;17.10;99.90;;;;;;5094614;28;20040;-46
2023/07/19 02:04:23;;;;;;;5.15;2.63;;;17.10;99.90;;;;;;5110223;28;20440;-47
2023/07/19 02:06:49;;;;;;;5.22;2.70;;;17.10;99.90;;;;;;5094689;28;20063;-48
2023/07/19 02:09:15;;;;;;;6.47;2.63;;;17.10;99.90;;;;;;5094443;28;20105;-48
2023/07/19 02:11:41;;;;;;;4.50;2.35;;;17.10;99.90;;;;;;5076380;28;20040;-46
2023/07/19 02:14:07;;;;;;;8.77;2.95;;;17.10;99.90;;;;;;5094523;28;20048;-46
2023/07/19 02:16:34;;;;;;;4.85;2.38;;;17.10;99.90;;;;;;5094250;28;20048;-46
2023/07/19 02:19:00;;;;;;;7.00;2.78;;;17.10;99.90;;;;;;5094117;28;20395;-47
2023/07/19 02:21:26;;;;;;;6.65;2.55;;;17.10;99.90;;;;;;5094338;28;20054;-46
2023/07/19 02:23:52;;;;;;;5.75;2.60;;;17.10;99.90;;;;;;5094351;28;20123;-47
2023/07/19 02:26:18;;;;;;;4.30;2.35;;;17.10;99.90;;;;;;5094329;28;20047;-46
2023/07/19 02:28:43;;;;;;;4.80;2.50;;;17.10;99.90;;;;;;5094132;28;20093;-47
2023/07/19 02:31:09;;;;;;;5.88;2.38;;;17.10;99.90;;;;;;5094143;28;20226;-47
2023/07/19 02:33:35;;;;;;;4.50;2.30;;;17.10;99.90;;;;;;5094036;28;20082;-47
2023/07/19 02:36:00;;;;;;;5.50;2.65;;;17.10;99.90;;;;;;5094303;28;20044;-47
2023/07/19 02:38:26;;;;;;;4.25;2.33;;;17.10;99.90;;;;;;5094052;28;20161;-46
2023/07/19 02:40:58;;;;;;;5.35;2.80;;;17.10;99.90;;;;;;5093504;28;20044;-46
2023/07/19 02:43:24;;;;;;;5.05;3.00;;;17.00;99.90;;;;;;5093697;28;20500;-47
2023/07/19 02:45:52;;;;;;;4.78;2.70;;;17.10;99.90;;;;;;5093884;28;20044;-47
2023/07/19 02:48:19;;;;;;;4.70;2.55;;;17.00;99.90;;;;;;5093459;28;20052;-50
2023/07/19 02:50:48;;;;;;;5.90;2.90;;;17.10;99.90;;;;;;5093869;28;20050;-47
2023/07/19 02:53:15;;;;;;;5.13;2.55;;;17.10;99.90;;;;;;5093744;28;20040;-47
2023/07/19 02:55:44;;;;;;;;;;;17.10;99.90;;;;;;5076179;28;20055;-47
2023/07/19 02:58:09;;;;;;;4.50;2.53;;;17.10;99.90;;;;;;5093496;28;20395;-47
2023/07/19 03:00:42;;;;;;;6.22;2.83;;;17.00;99.90;;;;;;5109272;28;20056;-46
2023/07/19 03:03:10;;;;;;;6.63;3.28;;;17.00;99.90;;;;;;5093556;28;20161;-47
2023/07/19 03:05:42;;;;;;;5.05;2.83;;;17.00;99.90;;;;;;5093552;28;20052;-47
2023/07/19 03:08:11;;;;;;;4.80;2.58;;;17.00;99.90;;;;;;5093441;28;20043;-47
2023/07/19 03:10:38;;;;;;;5.18;2.90;;;17.00;99.90;;;;;;5093351;28;20577;-46
2023/07/19 03:13:04;;;;;;;5.28;3.00;;;17.00;99.90;;;;;;5093443;28;20044;-47
2023/07/19 03:15:34;;;;;;;6.20;3.60;;;16.90;99.90;;;;;;5093288;28;20044;-48
2023/07/19 03:18:03;;;;;;;5.60;3.20;;;17.00;99.90;;;;;;5093302;28;20047;-46
2023/07/19 03:20:30;;;;;;;5.13;2.92;;;17.00;99.90;;;;;;5093601;28;20054;-47
2023/07/19 03:22:56;;;;;;;5.25;2.90;;;17.00;99.90;;;;;;5093282;28;20058;-47
2023/07/19 03:25:23;;;;;;;5.85;2.83;;;16.90;99.90;;;;;;5093382;28;20388;-47
2023/07/19 03:27:49;;;;;;;5.95;2.72;;;16.90;99.90;;;;;;5093198;28;20113;-47
2023/07/19 03:30:14;;;;;;;5.85;3.20;;;17.00;99.90;;;;;;5093114;28;20048;-48
2023/07/19 03:32:40;;;;;;;6.35;3.28;;;16.90;99.90;;;;;;5093116;28;20055;-46
2023/07/19 03:35:07;;;;;;;6.00;3.25;;;17.00;99.90;;;;;;5093199;28;20048;-47
2023/07/19 03:37:34;;;;;;;4.95;2.70;;;16.90;99.90;;;;;;5093005;28;20039;-46
2023/07/19 03:40:00;;;;;;;6.95;3.25;;;16.90;99.90;;;;;;5092920;28;20043;-47
2023/07/19 03:42:26;;;;;;;8.68;3.38;;;16.90;99.90;;;;;;5074822;28;20130;-47
2023/07/19 03:44:51;;;;;;;6.80;2.92;;;16.90;99.90;;;;;;5092904;28;20059;-47
2023/07/19 03:47:17;;;;;;;6.03;3.20;;;16.90;99.90;;;;;;5092724;28;20569;-45
2023/07/19 03:49:43;;;;;;;5.38;2.72;;;16.90;99.90;;;;;;5093069;28;20052;-48
2023/07/19 03:52:09;;;;;;;5.88;3.10;;;16.90;99.90;;;;;;5092939;28;20040;-46
2023/07/19 03:54:34;;;;;;;6.78;3.53;;;16.90;99.90;;;;;;5097022;28;20090;-47
2023/07/19 03:57:00;;;;;;;5.70;2.70;;;16.90;99.90;;;;;;5096986;28;20448;-47
2023/07/19 03:59:27;;;;;;;4.82;2.80;;;16.90;99.90;;;;;;5096790;28;20048;-48
2023/07/19 04:01:52;;;;;;;7.22;3.35;;;16.90;99.90;;;;;;5097009;28;20052;-47
2023/07/19 04:04:18;;;;;;;4.97;2.75;;;16.90;99.90;;;;;;5097087;28;20062;-48
2023/07/19 04:06:44;;;;;;;5.40;2.78;;;16.90;99.90;;;;;;5096862;28;20091;-47
2023/07/19 04:09:09;;;;;;;6.30;3.00;;;16.90;99.90;;;;;;5096919;28;20059;-47
2023/07/19 04:11:35;;;;;;;5.70;2.97;;;16.90;99.90;;;;;;5079024;28;20125;-47
2023/07/19 04:14:01;;;;;;;7.53;3.60;;;16.90;99.90;;;;;;5112429;28;20074;-47
2023/07/19 04:16:26;;;;;;;6.13;2.70;;;16.90;99.90;;;;;;5096905;28;20040;-47
2023/07/19 04:18:52;;;;;;;7.05;3.00;;;16.90;99.90;;;;;;5112519;28;20051;-47
2023/07/19 04:21:19;;;;;;;5.47;2.95;;;16.80;99.90;;;;;;5078580;28;20040;-47
2023/07/19 04:23:44;;;;;;;;;;;16.80;99.90;;;;;;5097022;28;20127;-47
2023/07/19 04:26:10;;;;;;;5.68;3.03;;;16.90;99.90;;;;;;5096362;28;19978;-47
2023/07/19 04:28:36;;;;;;;5.50;2.70;;;16.90;99.90;;;;;;5078276;28;20497;-46
2023/07/19 04:31:01;;;;;;;5.53;2.63;;;16.80;99.90;;;;;;5096462;28;20096;-47
2023/07/19 04:33:27;;;;;;;6.03;3.05;;;16.90;99.90;;;;;;5078398;28;20044;-46
2023/07/19 04:35:53;;;;;;;4.68;2.38;;;16.90;99.90;;;;;;5096338;28;20040;-47
2023/07/19 04:38:19;;;;;;;5.95;2.72;;;16.90;99.90;;;;;;5096670;28;20069;-51
2023/07/19 04:40:44;;;;;;;4.97;2.40;;;16.90;99.90;;;;;;5077946;28;20048;-47
2023/07/19 04:43:10;;;;;;;6.97;3.17;;;17.00;99.90;;;;;;5077907;28;20040;-47
2023/07/19 04:45:36;;;;;;;5.68;3.17;;;16.90;99.90;;;;;;5096297;28;20048;-48
2023/07/19 04:48:04;;;;;;;6.70;2.90;;;17.00;99.90;;;;;;5095768;28;20063;-47
2023/07/19 04:50:30;;;;;;;6.28;2.97;;;17.00;99.90;;;;;;5096027;28;20052;-47
2023/07/19 04:52:55;;;;;;;8.35;3.00;;;17.00;99.90;;;;;;5096037;28;20097;-47
2023/07/19 04:55:21;;;;;;;7.65;3.72;;;17.10;99.90;;;;;;5095920;28;20127;-47
2023/07/19 04:57:47;;;;;;;6.32;3.20;;;17.10;99.90;;;;;;5077731;28;20052;-48
2023/07/19 05:00:14;;;;;;;5.38;2.90;;;17.10;99.90;;;;;;5096416;28;20040;-47
2023/07/19 05:02:41;;;;;;;7.65;3.38;;;17.10;99.90;;;;;;5095926;28;20098;-49
2023/07/19 05:05:07;;;;;;;5.47;2.88;;;17.10;99.90;;;;;;5095382;28;20044;-47
2023/07/19 05:07:35;;;;;;;5.90;3.35;;;17.10;99.90;;;;;;5095799;28;20070;-47
2023/07/19 05:10:02;;;;;;;5.55;2.78;;;17.10;99.90;;;;;;5095833;28;20044;-47
2023/07/19 05:12:29;;;;;;;5.80;3.00;;;17.10;99.90;;;;;;5096024;28;20192;-47
2023/07/19 05:14:56;;;;;;;5.70;2.55;;;17.10;99.90;;;;;;5095756;28;20048;-46
2023/07/19 05:17:21;;;;;;;;;;;17.10;99.90;;;;;;5078073;28;20122;-47
2023/07/19 05:19:47;;;;;;;4.93;2.40;;;17.10;99.90;;;;;;5111810;28;20057;-48
2023/07/19 05:22:13;;;;;;;5.78;2.53;;;17.10;99.90;;;;;;5095817;28;20058;-48
2023/07/19 05:24:38;;;;;;;6.13;2.67;;;17.10;99.90;;;;;;5095493;28;20039;-47
2023/07/19 05:27:05;;;;;;;6.50;2.70;;;17.10;99.90;;;;;;5095764;28;20309;-48
2023/07/19 05:29:31;;;;;;;5.07;2.65;;;17.10;99.90;;;;;;5095694;28;20043;-46
2023/07/19 05:31:57;;;;;;;4.53;2.08;;;17.10;99.90;;;;;;5095616;28;20050;-48
2023/07/19 05:34:23;;;;;;;5.20;3.03;;;17.10;99.90;;;;;;5095357;28;20044;-47
2023/07/19 05:36:49;;;;;;;4.50;2.10;;;17.10;99.90;;;;;;5095056;28;20435;-47
2023/07/19 05:39:15;;;;;;;5.22;2.92;;;17.10;99.90;;;;;;5077136;28;20071;-47
2023/07/19 05:41:40;;;;;;;6.35;2.53;;;17.10;99.90;;;;;;5094979;28;20465;-47
2023/07/19 05:44:06;;;;;;;5.80;3.40;;;17.10;99.90;;;;;;5095292;28;20048;-47
2023/07/19 05:46:35;;;;;;;5.80;2.60;;;17.20;99.90;;;;;;5077339;28;20051;-47
2023/07/19 05:49:02;;;;;;;4.60;2.42;;;17.10;99.90;;;;;;5095009;28;20056;-47
2023/07/19 05:51:28;;;;;;;6.13;2.42;;;17.20;99.90;;;;;;5095162;28;20059;-46
2023/07/19 05:53:54;;;;;;;5.07;2.67;;;17.20;99.90;;;;;;5094765;28;20048;-46
2023/07/19 05:56:21;;;;;;;5.53;2.72;;;17.10;99.90;;;;;;5094541;28;20186;-47
2023/07/19 05:58:47;;;;;;;4.80;2.45;;;17.10;99.90;;;;;;5094721;28;20463;-47
2023/07/19 06:01:17;;;;;;;6.65;2.42;;;17.20;99.90;;;;;;5095106;28;20134;-48
2023/07/19 06:03:44;;;;;;;6.40;2.80;;;17.20;99.90;;;;;;5095019;28;20052;-47
2023/07/19 06:06:09;;;;;;;5.78;2.80;;;17.20;99.90;;;;;;5094762;28;20051;-47
2023/07/19 06:08:36;;;;;;;9.10;2.50;;;17.20;99.90;;;;;;5094474;28;20442;-46
2023/07/19 06:11:02;;;;;;;5.05;2.70;;;17.20;99.90;;;;;;5076861;28;20047;-45
2023/07/19 06:13:28;;;;;;;4.97;2.55;;;17.20;99.90;;;;;;5076776;28;20047;-46
2023/07/19 06:15:54;;;;;;;5.00;2.45;;;17.20;99.90;;;;;;5093972;28;20040;-46
2023/07/19 06:18:19;;;;;;;7.25;2.10;;;17.20;99.90;;;;;;5093953;28;20098;-47
2023/07/19 06:20:45;;;;;;;5.20;2.65;;;17.20;99.90;;;;;;5094462;28;20151;-48
2023/07/19 06:23:11;;;;;;;4.18;2.22;;;17.20;99.90;;;;;;5094403;28;20048;-48
2023/07/19 06:25:37;;;;;;;5.05;2.22;;;17.20;99.90;;;;;;5094413;28;20127;-47
2023/07/19 06:28:03;;;;;;;4.97;2.28;;;17.20;99.90;;;;;;5094376;28;20040;-48
2023/07/19 06:30:30;;;;;;;4.35;2.10;;;17.20;99.90;;;;;;5094403;28;20054;-48
2023/07/19 06:32:56;;;;;;;4.88;1.75;;;17.10;99.90;;;;;;5094284;28;20512;-47
2023/07/19 06:35:21;;;;;;;6.15;2.08;;;17.10;99.90;;;;;;5094103;28;20091;-48
2023/07/19 06:37:47;;;;;;;3.33;1.55;;;17.10;99.90;;;;;;5094132;28;20046;-47
2023/07/19 06:40:13;;;;;;;4.55;1.70;;;17.10;99.90;;;;;;5094282;28;20040;-48
2023/07/19 06:42:38;;;;;;;4.13;1.50;;;17.10;99.90;;;;;;5094124;28;20059;-47
2023/07/19 06:45:05;;;;;;;4.03;1.55;;;17.00;99.90;;;;;;5094018;28;20096;-47
2023/07/19 06:47:32;;;;;;;3.78;1.52;;;17.00;99.90;;;;;;5093785;28;20062;-47
2023/07/19 06:49:57;;;;;;;2.85;1.20;;;17.00;99.90;;;;;;5093938;28;20484;-48
2023/07/19 06:52:23;;;;;;;3.22;1.40;;;17.00;99.90;;;;;;5093799;28;20086;-47
2023/07/19 06:54:49;;;;;;;4.05;1.15;;;17.00;99.90;;;;;;5094127;28;20054;-47
2023/07/19 06:57:15;;;;;;;2.95;1.00;;;17.00;99.90;;;;;;5093768;28;20043;-48
2023/07/19 06:59:41;;;;;;;2.70;1.15;;;17.00;99.90;;;;;;5109814;28;20052;-47
2023/07/19 07:02:08;;;;;;;3.03;1.17;;;17.00;99.90;;;;;;5093634;28;20070;-47
2023/07/19 07:04:33;;;;;;;2.35;1.10;;;17.00;99.90;;;;;;5093524;28;20638;-48
2023/07/19 07:06:59;;;;;;;3.92;1.02;;;17.00;99.90;;;;;;5093551;28;20040;-47
2023/07/19 07:09:25;;;;;;;3.67;1.13;;;17.00;99.90;;;;;;5093901;28;20048;-48
2023/07/19 07:11:51;;;;;;;4.13;1.23;;;17.10;99.90;;;;;;5075655;28;20286;-47
2023/07/19 07:14:17;;;;;;;2.25;1.00;;;17.10;99.90;;;;;;5093437;28;20054;-49
2023/07/19 07:16:42;;;;;;;3.53;1.00;;;17.10;99.90;;;;;;5093390;28;20044;-48
2023/07/19 07:19:08;;;;;;;2.80;0.98;;;17.10;99.90;;;;;;5093417;28;20680;-48
2023/07/19 07:21:34;;;;;;;5.30;1.23;;;17.20;99.90;;;;;;5093235;28;20131;-46
2023/07/19 07:23:59;;;;;;;3.75;1.30;;;17.30;99.90;;;;;;5093369;28;20457;-49
2023/07/19 07:26:25;;;;;;;4.43;1.10;;;17.30;99.90;;;;;;5075328;28;20471;-48
2023/07/19 07:28:51;;;;;;;3.90;1.17;;;17.30;99.90;;;;;;5093049;28;20096;-48
2023/07/19 07:31:17;;;;;;;4.53;1.30;;;17.40;99.90;;;;;;5093323;28;20050;-45
2023/07/19 07:33:42;;;;;;;3.85;1.25;;;17.50;99.90;;;;;;5093510;28;20477;-47
2023/07/19 07:36:08;;;;;;;4.35;1.17;;;17.60;99.90;;;;;;5075012;28;20050;-47
2023/07/19 07:38:34;;;;;;;3.58;1.17;;;17.60;99.90;;;;;;5093656;28;20048;-48
2023/07/19 07:41:06;;;;;;;2.80;1.17;;;17.50;99.90;;;;;;5093257;28;20120;-47
2023/07/19 07:43:32;;;;;;;4.57;1.50;;;17.50;99.90;;;;;;5093623;28;20044;-49
2023/07/19 07:45:58;;;;;;;3.78;1.33;;;17.50;99.90;;;;;;5093009;28;20372;-48
2023/07/19 07:48:25;;;;;;;2.95;1.30;;;17.50;99.90;;;;;;5092579;28;20048;-49
2023/07/19 07:50:54;;;;;;;2.80;1.10;;;17.50;99.90;;;;;;5092763;28;20519;-48
2023/07/19 07:53:20;;;;;;;2.70;1.10;;;17.50;99.90;;;;;;5075202;28;20040;-50
2023/07/19 07:55:47;;;;;;;2.13;0.80;;;17.60;99.90;;;;;;5093048;28;20051;-46
2023/07/19 07:58:13;;;;;;;;;;;17.70;99.90;;;;;;5094139;28;20047;-46
2023/07/19 08:00:38;;;;;;;2.55;0.90;;;17.70;99.90;;;;;;5093518;28;20011;-48
2023/07/19 08:03:04;;;;;;;2.30;1.00;;;17.80;99.90;;;;;;5093559;28;20124;-47
2023/07/19 08:05:32;;;;;;;2.40;1.00;;;17.80;99.90;;;;;;5093439;28;20499;-47
2023/07/19 08:07:58;;;;;;;2.03;0.95;;;17.80;99.90;;;;;;5093461;28;20040;-48
2023/07/19 08:10:23;;;;;;;6.20;1.45;;;17.90;99.90;;;;;;5093447;28;20507;-46
2023/07/19 08:12:49;;;;;;;6.57;1.17;;;17.90;99.90;;;;;;5093363;28;20404;-48
2023/07/19 08:15:15;;;;;;;4.32;1.25;;;17.90;99.90;;;;;;5093487;28;20479;-50
2023/07/19 08:17:40;;;;;;;4.18;1.88;;;17.90;99.90;;;;;;5093379;28;20100;-47
2023/07/19 08:20:09;;;;;;;4.32;1.15;;;18.00;99.90;;;;;;5093146;28;20484;-51
2023/07/19 08:22:37;;;;;;;5.10;1.90;;;18.00;99.90;;;;;;5093153;28;20119;-48
2023/07/19 08:25:04;;;;;;;4.55;1.23;;;18.10;99.90;;;;;;5075070;28;20101;-50
2023/07/19 08:27:30;;;;;;;3.42;1.45;;;18.20;99.90;;;;;;5092962;28;20051;-48
2023/07/19 08:29:55;;;;;;;2.72;1.38;;;18.30;99.90;;;;;;5092720;28;20052;-48
2023/07/19 08:32:21;;;;;;;3.00;1.00;;;18.30;99.90;;;;;;5092782;28;20052;-49
2023/07/19 08:34:47;;;;;;;3.75;1.20;;;18.40;99.90;;;;;;5092615;28;20040;-48
2023/07/19 08:37:12;;;;;;;4.78;1.60;;;18.50;99.90;;;;;;5092767;28;20093;-48
2023/07/19 08:39:38;;;;;;;3.15;1.20;;;18.50;99.90;;;;;;5075819;28;20128;-51
2023/07/19 08:42:04;;;;;;;5.22;1.10;;;18.60;99.90;;;;;;5096566;28;20484;-46
2023/07/19 08:44:30;;;;;;;3.80;1.58;;;18.60;99.90;;;;;;5096759;28;20438;-46
2023/07/19 08:46:57;;;;;;;2.45;1.05;;;18.70;99.90;;;;;;5096303;28;20048;-46
2023/07/19 08:49:23;;;;;;;2.38;0.60;;;18.70;99.90;;;;;;5096579;28;20110;-47
2023/07/19 08:51:49;;;;;;;2.00;0.45;;;18.80;99.90;;;;;;5096623;28;20052;-46
2023/07/19 08:54:15;;;;;;;2.72;0.60;;;18.80;99.90;;;;;;5096719;28;20059;-47
2023/07/19 08:56:41;;;;;;;1.65;0.70;;;18.80;99.90;;;;;;5078563;28;20051;-51
2023/07/19 08:59:08;;;;;;;6.28;0.80;;;18.70;99.90;;;;;;5078549;28;20177;-47
2023/07/19 09:01:34;;;;;;;2.78;0.70;;;18.70;99.90;;;;;;5078052;28;20097;-50
2023/07/19 09:04:00;;;;;;;2.90;0.88;;;18.60;99.90;;;;;;5096422;28;20131;-50
2023/07/19 09:06:28;;;;;;;2.17;0.80;;;18.60;99.90;;;;;;5096272;28;20135;-48
2023/07/19 09:08:55;;;;;;;2.63;0.70;;;18.50;99.90;;;;;;5096162;28;20102;-50
2023/07/19 09:11:25;;;;;;;1.77;0.70;;;18.50;99.90;;;;;;5096143;28;20503;-47
2023/07/19 09:13:55;;;;;;;2.47;0.73;;;18.50;99.90;;;;;;5078006;28;20519;-48
2023/07/19 09:16:28;;;;;;;0.70;0.50;;;18.50;99.90;;;;;;5095679;28;20126;-50
2023/07/19 09:18:56;;;;;;;2.78;0.85;;;18.40;99.90;;;;;;5061534;28;20052;-48
2023/07/19 09:21:42;;;;;;;2.08;0.90;;;18.40;99.90;;;;;;5095994;28;20170;-47
2023/07/19 09:24:10;;;;;;;3.50;0.90;;;18.40;99.90;;;;;;5096061;28;20048;-47
2023/07/19 09:26:53;;;;;;;2.10;1.00;;;18.40;99.90;;;;;;5095660;28;20056;-46
2023/07/19 09:29:20;;;;;;;1.40;0.63;;;18.40;99.90;;;;;;5095730;28;20504;-47
2023/07/19 09:31:58;;;;;;;1.63;0.85;;;18.40;99.90;;;;;;5095798;28;20055;-46
2023/07/19 09:34:34;;;;;;;3.50;1.20;;;18.50;99.90;;;;;;5095841;28;20079;-47
2023/07/19 09:37:01;;;;;;;4.97;1.25;;;18.50;99.90;;;;;;5095492;28;20100;-46
2023/07/19 09:39:29;;;;;;;3.22;1.08;;;18.60;99.90;;;;;;5095402;28;20048;-47
2023/07/19 09:41:57;;;;;;;3.15;0.85;;;18.60;99.90;;;;;;5095644;28;20048;-47
2023/07/19 09:44:23;;;;;;;2.15;0.70;;;18.60;99.90;;;;;;5095426;28;20409;-47
2023/07/19 09:46:49;;;;;;;1.85;0.73;;;18.60;99.90;;;;;;5095748;28;20503;-46
2023/07/19 09:49:15;;;;;;;;;;;18.60;99.90;;;;;;5096406;28;20051;-46
2023/07/19 09:51:42;;;;;;;1.38;0.60;;;18.60;99.90;;;;;;5095149;28;20398;-47
2023/07/19 09:54:10;;;;;;;1.15;0.60;;;18.70;99.90;;;;;;5095064;28;20476;-46
2023/07/19 09:56:36;;;;;;;1.77;0.60;;;18.70;99.90;;;;;;5095162;28;20048;-47
2023/07/19 09:59:06;;;;;;;2.15;0.60;;;18.70;99.90;;;;;;5094433;28;20126;-46
2023/07/19 10:01:32;;;;;;;2.75;0.90;;;18.80;99.90;;;;;;5095366;28;20044;-46
2023/07/19 10:03:58;;;;;;;2.95;1.00;;;18.80;99.90;;;;;;5077240;28;20131;-47
2023/07/19 10:06:30;;;;;;;4.63;1.02;;;18.80;99.90;;;;;;5094791;28;20079;-46
2023/07/19 10:09:25;;;;;;;2.78;1.00;;;18.90;99.90;;;;;;5095000;28;20472;-51
2023/07/19 10:11:51;;;;;;;1.83;0.70;;;19.00;99.90;;;;;;5077115;28;20048;-47
2023/07/19 10:14:25;;;;;;;2.85;0.80;;;19.00;99.90;;;;;;5095040;28;20048;-47
2023/07/19 10:16:59;;;;;;;2.25;1.00;;;19.00;99.90;;;;;;5094454;28;20040;-50
2023/07/19 10:19:25;;;;;;;2.78;1.05;;;19.10;99.90;;;;;;5076650;28;20059;-49
2023/07/19 10:22:04;;;;;;;3.47;0.70;;;19.10;99.90;;;;;;5094695;28;20480;-48
2023/07/19 10:24:35;;;;;;;2.13;0.85;;;19.10;99.90;;;;;;5094461;28;20553;-46
2023/07/19 10:27:08;;;;;;;1.77;0.73;;;19.10;99.90;;;;;;5094597;28;20039;-46
2023/07/19 10:29:38;;;;;;;2.80;0.93;;;19.20;99.90;;;;;;5076744;28;20040;-46
2023/07/19 10:32:05;;;;;;;1.65;0.60;;;19.30;99.90;;;;;;5094937;28;20044;-46
2023/07/19 10:34:31;;;;;;;2.10;1.00;;;19.30;99.90;;;;;;5094930;28;20553;-46
2023/07/19 10:37:04;;;;;;;2.67;0.68;;;19.50;99.90;;;;;;5094254;28;20036;-48
2023/07/19 10:39:30;;;;;;;3.10;0.82;;;19.50;99.90;;;;;;5094240;28;20546;-47
2023/07/19 10:41:56;;;;;;;2.08;0.60;;;19.50;99.90;;;;;;5094296;28;20491;-46
2023/07/19 10:44:22;;;;;;;3.38;0.70;;;19.50;99.90;;;;;;5094286;28;20481;-47
2023/07/19 10:46:48;;;;;;;1.35;0.40;;;19.50;99.90;;;;;;5094439;28;20055;-46
2023/07/19 10:49:15;;;;;;;1.98;0.50;;;19.50;99.90;;;;;;5094147;28;20059;-47
2023/07/19 10:51:57;;;;;;;1.80;0.60;;;19.40;99.90;;;;;;5094268;28;20059;-47
2023/07/19 10:54:24;;;;;;;1.77;0.60;;;19.30;99.90;;;;;;5093984;28;20132;-46
2023/07/19 10:56:50;;;;;;;1.50;0.68;;;19.40;99.90;;;;;;5076306;28;20370;-46
2023/07/19 10:59:16;;;;;;;2.33;0.60;;;19.50;99.90;;;;;;5094184;28;20077;-46
2023/07/19 11:01:43;;;;;;;1.45;0.60;;;19.60;99.90;;;;;;5075901;28;20075;-46
2023/07/19 11:04:08;;;;;;;;;;;19.60;99.90;;;;;;5094068;28;20044;-47
2023/07/19 11:06:39;;;;;;;2.35;0.88;;;19.80;99.90;;;;;;5094028;28;19927;-46
2023/07/19 11:09:06;;;;;;;2.25;0.65;;;19.90;99.90;;;;;;5093927;28;20138;-46
2023/07/19 11:11:36;;;;;;;3.00;0.70;;;20.10;99.90;;;;;;5093964;28;20056;-46
2023/07/19 11:14:02;;;;;;;1.10;0.40;;;20.10;99.90;;;;;;5094220;28;20069;-47
2023/07/19 11:16:29;;;;;;;1.88;0.60;;;20.10;99.90;;;;;;5093914;28;20130;-47
2023/07/19 11:18:55;;;;;;;0.82;0.38;;;20.00;99.90;;;;;;5093815;28;20051;-48
2023/07/19 11:21:25;;;;;;;2.30;0.45;;;20.00;99.90;;;;;;5093643;28;20047;-49
2023/07/19 11:23:51;;;;;;;2.50;0.30;;;20.10;99.90;;;;;;5093851;28;20040;-47
2023/07/19 11:26:18;;;;;;;;;;;20.20;99.90;;;;;;5094192;28;20039;-46
2023/07/19 11:28:50;;;;;;;0.68;0.30;;;20.20;99.90;;;;;;5093765;28;19920;-47
2023/07/19 11:31:35;;;;;;;1.40;0.38;;;20.20;99.90;;;;;;5093562;28;20052;-48
2023/07/19 11:34:05;;;;;;;0.38;0.20;;;20.20;99.90;;;;;;5093529;28;20083;-46
2023/07/19 11:36:31;;;;;;;1.77;0.50;;;20.10;99.90;;;;;;5093541;28;20048;-46
2023/07/19 11:38:57;;;;;;;1.50;0.40;;;20.10;99.90;;;;;;5093574;28;20052;-46
2023/07/19 11:41:23;;;;;;;0.50;0.35;;;20.20;99.90;;;;;;5093455;28;20094;-47
2023/07/19 11:43:52;;;;;;;0.77;0.47;;;20.30;99.90;;;;;;5093505;28;20083;-46
2023/07/19 11:46:18;;;;;;;0.80;0.40;;;20.40;99.90;;;;;;5075424;28;20079;-49
2023/07/19 11:48:46;;;;;;;1.42;0.50;;;20.60;99.90;;;;;;5093269;28;20098;-45
2023/07/19 11:51:13;;;;;;;0.75;0.38;;;20.80;99.90;;;;;;5093065;28;20508;-47
2023/07/19 11:53:39;;;;;;;1.63;0.50;;;21.00;99.90;;;;;;5093385;28;20475;-46
2023/07/19 11:56:06;;;;;;;1.40;0.50;;;21.20;99.90;;;;;;5093338;28;20399;-46
2023/07/19 11:58:33;;;;;;;1.10;0.40;;;21.30;99.90;;;;;;5075043;28;20411;-47
2023/07/19 12:01:00;;;;;;;0.80;0.40;;;21.50;99.90;;;;;;5093079;28;20473;-47
2023/07/19 12:03:26;;;;;;;0.88;0.30;;;21.60;99.90;;;;;;5093579;28;20055;-47
2023/07/19 12:05:52;;;;;;;1.35;0.40;;;21.60;99.90;;;;;;5075802;28;20338;-46
2023/07/19 12:08:17;;;;;;;2.10;0.60;;;21.60;99.90;;;;;;5093422;28;20036;-47
2023/07/19 12:10:43;;;;;;;0.60;0.40;;;21.70;99.90;;;;;;5093293;28;20047;-46
2023/07/19 12:13:09;;;;;;;2.85;0.80;;;21.80;99.90;;;;;;5093385;28;20048;-46
2023/07/19 12:15:35;;;;;;;2.22;0.47;;;21.80;99.90;;;;;;5097204;28;20043;-46
2023/07/19 12:18:01;;;;;;;2.63;0.40;;;21.70;99.90;;;;;;5113518;28;20040;-46
2023/07/19 12:20:27;;;;;;;1.77;0.65;;;21.60;99.90;;;;;;5097226;28;20051;-46
2023/07/19 12:22:53;;;;;;;0.75;0.38;;;21.70;99.90;;;;;;5097497;28;20047;-46
2023/07/19 12:25:19;;;;;;;1.63;0.30;;;21.60;99.90;;;;;;5097152;28;20044;-46
2023/07/19 12:27:46;;;;;;;2.08;0.47;;;21.60;99.90;;;;;;5097144;28;20040;-47
2023/07/19 12:30:12;;;;;;;3.33;0.80;;;21.60;99.90;;;;;;5079136;28;20048;-46
2023/07/19 12:32:38;;;;;;;1.90;0.70;;;21.50;99.90;;;;;;5097292;28;20100;-47
2023/07/19 12:35:05;;;;;;;1.13;0.22;;;21.40;99.90;;;;;;5097049;28;20044;-47
2023/07/19 12:37:33;;;;;;;0.88;0.40;;;21.30;99.90;;;;;;5097030;28;20051;-46
2023/07/19 12:39:58;;;;;;;1.15;0.40;;;21.40;99.90;;;;;;5079020;28;20118;-48
2023/07/19 12:42:26;;;;;;;1.48;0.30;;;21.30;99.90;;;;;;5096883;28;20044;-47
2023/07/19 12:44:51;;;;;;;0.80;0.20;;;21.30;99.90;;;;;;5096670;28;20048;-47